Time;durP1;ratioP1;P1;durP2;ratioP2;P2;SDS_P1;SDS_P2;PMS_P1;PMS_P2;Temp;Humidity;BMP_temperature;BMP_pressure;BME280_temperature;BME280_humidity;BME280_pressure;Samples;Min_cycle;Max_cycle;Signal;HPM_P1;HPM_P2
2023/02/23 00:00:27;;;;;;;6.60;5.47;;;;;;;;;;5111419;28;20296;-87
2023/02/23 00:02:57;;;;;;;7.13;5.03;;;;;;;;;;5105936;28;20203;-88
2023/02/23 00:05:24;;;;;;;8.10;4.40;;;;;;;;;;5095005;28;20722;-90
2023/02/23 00:07:51;;;;;;;6.03;4.70;;;;;;;;;;5115493;28;20203;-87
2023/02/23 00:10:20;;;;;;;7.63;4.17;;;;;;;;;;5101118;28;20673;-88
2023/02/23 00:12:49;;;;;;;4.77;4.00;;;;;;;;;;5102013;28;20207;-87
2023/02/23 00:15:16;;;;;;;5.37;4.10;;;;;;;;;;5115116;28;20309;-88
2023/02/23 00:17:46;;;;;;;3.67;3.33;;;;;;;;;;5115435;28;20690;-87
2023/02/23 00:20:15;;;;;;;4.70;3.63;;;;;;;;;;5101854;28;20228;-87
2023/02/23 00:22:42;;;;;;;7.13;4.17;;;;;;;;;;5107068;28;20235;-87
2023/02/23 00:25:11;;;;;;;7.03;4.10;;;;;;;;;;5109700;28;20617;-88
2023/02/23 00:27:43;;;;;;;4.97;4.30;;;;;;;;;;5115045;28;20239;-87
2023/02/23 00:30:13;;;;;;;5.00;4.20;;;;;;;;;;5101108;28;20208;-87
2023/02/23 00:32:40;;;;;;;6.53;4.33;;;;;;;;;;5115309;28;20253;-87
2023/02/23 00:35:15;;;;;;;4.37;3.77;;;;;;;;;;5111824;28;20216;-87
2023/02/23 00:37:43;;;;;;;4.33;3.83;;;;;;;;;;5106465;28;20275;-88
2023/02/23 00:40:15;;;;;;;9.20;4.83;;;;;;;;;;5101652;28;20207;-87
2023/02/23 00:42:42;;;;;;;6.07;4.93;;;;;;;;;;5114646;28;20209;-87
2023/02/23 00:45:11;;;;;;;8.30;4.93;;;;;;;;;;5114992;28;20326;-87
2023/02/23 00:47:39;;;;;;;8.33;4.83;;;;;;;;;;5114324;28;20277;-88
2023/02/23 00:50:11;;;;;;;6.90;4.37;;;;;;;;;;5101564;28;20203;-87
2023/02/23 00:52:39;;;;;;;5.30;4.40;;;;;;;;;;5114954;28;20261;-87
2023/02/23 00:55:10;;;;;;;4.17;3.73;;;;;;;;;;5114478;28;20210;-88
2023/02/23 00:57:37;;;;;;;5.77;4.43;;;;;;;;;;5114458;28;20248;-88
2023/02/23 01:00:13;;;;;;;5.30;4.43;;;;;;;;;;5114789;28;20215;-88
2023/02/23 01:02:42;;;;;;;6.27;4.10;;;;;;;;;;5100866;28;20633;-87
2023/02/23 01:05:10;;;;;;;6.33;4.27;;;;;;;;;;5103144;28;20219;-88
2023/02/23 01:07:49;;;;;;;7.67;4.37;;;;;;;;;;5093830;28;20196;-89
2023/02/23 01:10:19;;;;;;;4.60;3.90;;;;;;;;;;5107045;28;20317;-87
2023/02/23 01:12:48;;;;;;;8.33;3.67;;;;;;;;;;5114003;28;20294;-88
2023/02/23 01:15:16;;;;;;;5.70;3.50;;;;;;;;;;5113721;28;20221;-88
2023/02/23 01:17:44;;;;;;;9.03;3.83;;;;;;;;;;5114422;28;20207;-88
2023/02/23 01:20:17;;;;;;;5.73;4.07;;;;;;;;;;5114184;28;20204;-88
2023/02/23 01:22:46;;;;;;;7.50;3.90;;;;;;;;;;5114105;28;20203;-88
2023/02/23 01:25:13;;;;;;;5.63;3.83;;;;;;;;;;5100381;28;20646;-88
2023/02/23 01:27:40;;;;;;;4.53;3.60;;;;;;;;;;5114125;28;20203;-88
2023/02/23 01:30:09;;;;;;;4.07;3.53;;;;;;;;;;5113974;28;20211;-88
2023/02/23 01:32:36;;;;;;;5.40;4.50;;;;;;;;;;5113955;28;20195;-88
2023/02/23 01:35:07;;;;;;;4.67;3.67;;;;;;;;;;5113754;28;20215;-88
2023/02/23 01:37:35;;;;;;;6.83;3.93;;;;;;;;;;5113890;28;20195;-87
2023/02/23 01:40:08;;;;;;;4.20;3.00;;;;;;;;;;5099809;28;20299;-86
2023/02/23 01:42:38;;;;;;;4.20;3.47;;;;;;;;;;5102327;28;20552;-86
2023/02/23 01:45:24;;;;;;;4.30;2.97;;;;;;;;;;5112126;28;20322;-87
2023/02/23 01:47:53;;;;;;;5.70;4.20;;;;;;;;;;5113414;28;20234;-87
2023/02/23 01:50:21;;;;;;;4.67;3.87;;;;;;;;;;5113146;28;20689;-87
2023/02/23 01:52:50;;;;;;;3.93;3.53;;;;;;;;;;5112708;28;20206;-87
2023/02/23 01:55:23;;;;;;;6.80;4.10;;;;;;;;;;5113027;28;20207;-87
2023/02/23 01:57:52;;;;;;;8.00;4.47;;;;;;;;;;5113663;28;20223;-88
2023/02/23 02:00:24;;;;;;;5.77;4.77;;;;;;;;;;5112694;28;20208;-87
2023/02/23 02:02:51;;;;;;;5.80;3.47;;;;;;;;;;5099661;28;20195;-87
2023/02/23 02:05:19;;;;;;;5.40;3.80;;;;;;;;;;5113001;28;20266;-87
2023/02/23 02:07:49;;;;;;;10.37;5.83;;;;;;;;;;5112840;28;20241;-87
2023/02/23 02:10:39;;;;;;;8.87;6.37;;;;;;;;;;5100514;28;20726;-87
2023/02/23 02:13:07;;;;;;;7.37;6.03;;;;;;;;;;5093223;28;20679;-88
2023/02/23 02:15:38;;;;;;;7.57;4.93;;;;;;;;;;5109917;28;20260;-88
2023/02/23 02:18:12;;;;;;;6.60;6.00;;;;;;;;;;5112914;28;20268;-86
2023/02/23 02:21:12;;;;;;;9.17;6.50;;;;;;;;;;5112607;28;20211;-87
2023/02/23 02:23:54;;;;;;;5.27;4.77;;;;;;;;;;5051418;28;20204;-88
2023/02/23 02:26:28;;;;;;;4.53;4.07;;;;;;;;;;5091693;28;20203;-88
2023/02/23 02:29:25;;;;;;;8.73;4.30;;;;;;;;;;5112630;28;20674;-88
2023/02/23 02:32:18;;;;;;;5.50;3.60;;;;;;;;;;5112642;28;20207;-88
2023/02/23 02:35:11;;;;;;;4.90;4.40;;;;;;;;;;5112523;28;20207;-88
2023/02/23 02:37:55;;;;;;;4.77;4.20;;;;;;;;;;5112435;28;20215;-88
2023/02/23 02:40:27;;;;;;;4.80;4.00;;;;;;;;;;5099339;28;20214;-87
2023/02/23 02:43:00;;;;;;;7.67;6.87;;;;;;;;;;5112344;28;20208;-87
2023/02/23 02:45:30;;;;;;;7.47;6.20;;;;;;;;;;5112483;28;20231;-87
2023/02/23 02:48:02;;;;;;;7.40;5.57;;;;;;;;;;5112545;28;20238;-89
2023/02/23 02:50:39;;;;;;;5.63;5.13;;;;;;;;;;5112570;28;20268;-89
2023/02/23 02:53:08;;;;;;;5.80;4.63;;;;;;;;;;5111972;28;20203;-88
2023/02/23 02:55:40;;;;;;;5.20;3.67;;;;;;;;;;5099886;28;20208;-88
2023/02/23 02:58:08;;;;;;;6.30;5.37;;;;;;;;;;5112035;28;20207;-88
2023/02/23 04:18:21;;;;;;;35.53;22.00;;;;;;;;;;5102722;28;20203;-88
2023/02/23 04:20:48;;;;;;;36.97;23.70;;;;;;;;;;5115301;28;20203;-88
2023/02/23 04:23:15;;;;;;;11.77;7.13;;;;;;;;;;5115178;28;20207;-87
2023/02/23 04:25:42;;;;;;;5.97;4.60;;;;;;;;;;5112409;28;20235;-88
2023/02/23 04:28:09;;;;;;;23.67;10.13;;;;;;;;;;5094631;28;20211;-88
2023/02/23 04:30:36;;;;;;;10.53;7.13;;;;;;;;;;5110778;28;20211;-90
2023/02/23 04:33:04;;;;;;;6.93;5.43;;;;;;;;;;5111427;28;20658;-88
2023/02/23 04:35:31;;;;;;;5.17;4.67;;;;;;;;;;5114169;28;20260;-88
2023/02/23 04:37:58;;;;;;;5.30;3.93;;;;;;;;;;5115198;28;20195;-88
2023/02/23 04:40:28;;;;;;;5.67;4.00;;;;;;;;;;5096066;28;20246;-87
2023/02/23 04:42:55;;;;;;;5.10;4.27;;;;;;;;;;5094550;28;20269;-86
2023/02/23 04:45:23;;;;;;;6.10;4.60;;;;;;;;;;5113830;28;20628;-87
2023/02/23 04:47:50;;;;;;;6.93;5.27;;;;;;;;;;5114433;28;20386;-87
2023/02/23 04:50:19;;;;;;;6.03;4.30;;;;;;;;;;5106473;28;20200;-87
2023/02/23 04:52:47;;;;;;;5.77;4.70;;;;;;;;;;5094246;28;20627;-87
2023/02/23 04:55:17;;;;;;;7.00;4.30;;;;;;;;;;5101668;28;20685;-86
2023/02/23 04:57:44;;;;;;;6.13;4.17;;;;;;;;;;5101053;28;20559;-88
2023/02/23 05:00:12;;;;;;;7.70;4.63;;;;;;;;;;5115028;28;20215;-88
2023/02/23 05:02:39;;;;;;;5.70;3.83;;;;;;;;;;5114081;28;20591;-87
2023/02/23 05:05:08;;;;;;;6.17;4.30;;;;;;;;;;5110241;28;20219;-83
2023/02/23 05:07:36;;;;;;;5.10;3.97;;;;;;;;;;5108793;28;20209;-85
2023/02/23 05:10:03;;;;;;;10.23;4.17;;;;;;;;;;5107218;28;20197;-87
2023/02/23 05:12:32;;;;;;;4.57;4.17;;;;;;;;;;5102902;28;20254;-85
2023/02/23 05:15:01;;;;;;;13.80;4.37;;;;;;;;;;5102940;28;20205;-85
2023/02/23 05:17:28;;;;;;;4.33;3.93;;;;;;;;;;5106389;28;20597;-86
2023/02/23 05:19:55;;;;;;;7.33;4.27;;;;;;;;;;5106861;28;20217;-85
2023/02/23 05:22:22;;;;;;;5.27;4.70;;;;;;;;;;5106613;28;20627;-85
2023/02/23 05:24:50;;;;;;;11.37;8.33;;;;;;;;;;5100721;28;20219;-85
2023/02/23 05:27:17;;;;;;;16.33;7.77;;;;;;;;;;5112694;28;20268;-85
2023/02/23 05:29:44;;;;;;;14.13;7.70;;;;;;;;;;5113166;28;20254;-85
2023/02/23 05:32:11;;;;;;;15.30;9.57;;;;;;;;;;5106773;28;20261;-85
2023/02/23 05:34:38;;;;;;;17.17;12.20;;;;;;;;;;5113181;28;20260;-85
2023/02/23 05:37:05;;;;;;;12.43;8.17;;;;;;;;;;5107373;28;20218;-86
2023/02/23 05:39:32;;;;;;;22.50;14.00;;;;;;;;;;5092903;28;20208;-86
2023/02/23 05:42:00;;;;;;;22.37;18.10;;;;;;;;;;5106341;28;20204;-85
2023/02/23 05:44:27;;;;;;;25.20;17.83;;;;;;;;;;5105997;28;20207;-85
2023/02/23 05:46:54;;;;;;;29.80;18.67;;;;;;;;;;5106132;28;20243;-85
2023/02/23 05:49:21;;;;;;;23.57;15.47;;;;;;;;;;5092782;28;20208;-85
2023/02/23 05:51:48;;;;;;;21.63;15.70;;;;;;;;;;5112824;28;20670;-86
2023/02/23 05:54:15;;;;;;;20.30;15.27;;;;;;;;;;5112383;28;20211;-86
2023/02/23 05:56:42;;;;;;;21.23;17.10;;;;;;;;;;5099361;28;20202;-86
2023/02/23 05:59:11;;;;;;;16.77;14.53;;;;;;;;;;5099516;28;20257;-87
2023/02/23 06:01:39;;;;;;;22.90;14.90;;;;;;;;;;5112952;28;20191;-86
2023/02/23 06:04:06;;;;;;;19.97;15.13;;;;;;;;;;5098968;28;20208;-87
2023/02/23 06:06:32;;;;;;;18.23;14.13;;;;;;;;;;5113124;28;20231;-87
2023/02/23 06:09:00;;;;;;;26.07;16.37;;;;;;;;;;5099815;28;20226;-87
2023/02/23 06:11:27;;;;;;;17.63;13.77;;;;;;;;;;5113030;28;20199;-87
2023/02/23 06:13:54;;;;;;;15.57;10.73;;;;;;;;;;5112869;28;20200;-86
2023/02/23 06:16:22;;;;;;;13.50;8.83;;;;;;;;;;5113005;28;20211;-87
2023/02/23 06:18:51;;;;;;;11.30;8.73;;;;;;;;;;5112743;28;20200;-87
2023/02/23 06:21:18;;;;;;;9.37;7.43;;;;;;;;;;5112809;28;20207;-87
2023/02/23 06:23:44;;;;;;;16.13;8.90;;;;;;;;;;5095746;28;20215;-87
2023/02/23 06:26:11;;;;;;;11.33;8.67;;;;;;;;;;5103092;28;20296;-85
2023/02/23 06:28:38;;;;;;;13.63;8.40;;;;;;;;;;5108653;28;20200;-86
2023/02/23 06:31:06;;;;;;;15.37;10.50;;;;;;;;;;5092418;28;20274;-86
2023/02/23 06:33:34;;;;;;;17.20;10.43;;;;;;;;;;5110141;28;20253;-86
2023/02/23 06:36:01;;;;;;;13.57;10.07;;;;;;;;;;5101160;28;20265;-86
2023/02/23 06:38:28;;;;;;;20.37;10.33;;;;;;;;;;5096993;28;20200;-86
2023/02/23 06:40:54;;;;;;;29.17;11.70;;;;;;;;;;5112265;28;20207;-87
2023/02/23 06:43:21;;;;;;;17.27;11.37;;;;;;;;;;5112399;28;20222;-86
2023/02/23 06:45:49;;;;;;;18.63;10.97;;;;;;;;;;5112427;28;20230;-86
2023/02/23 06:48:16;;;;;;;17.07;11.93;;;;;;;;;;5112322;28;20701;-86
2023/02/23 06:50:45;;;;;;;14.47;11.47;;;;;;;;;;5112279;28;20605;-86
2023/02/23 06:53:12;;;;;;;14.57;9.63;;;;;;;;;;5106397;28;20215;-86
2023/02/23 06:55:38;;;;;;;17.13;11.17;;;;;;;;;;5104600;28;20260;-86
2023/02/23 06:58:06;;;;;;;14.93;12.07;;;;;;;;;;5111851;28;20264;-85
2023/02/23 07:00:33;;;;;;;6.87;5.87;;;;;;;;;;5112127;28;20227;-86
2023/02/23 07:03:00;;;;;;;7.70;4.33;;;;;;;;;;5112390;28;20256;-86
2023/02/23 07:05:27;;;;;;;5.27;4.07;;;;;;;;;;5111652;28;20227;-85
2023/02/23 07:07:55;;;;;;;5.60;4.00;;;;;;;;;;5104348;28;20228;-85
2023/02/23 07:10:22;;;;;;;8.60;6.97;;;;;;;;;;5105415;28;20674;-85
2023/02/23 07:12:49;;;;;;;5.43;3.90;;;;;;;;;;5111420;28;20222;-85
2023/02/23 07:15:17;;;;;;;4.00;3.60;;;;;;;;;;5098404;28;20201;-85
2023/02/23 07:17:47;;;;;;;4.83;3.10;;;;;;;;;;5112462;28;20203;-85
2023/02/23 07:20:14;;;;;;;4.93;3.47;;;;;;;;;;5109976;28;20195;-86
2023/02/23 07:22:41;;;;;;;10.10;3.80;;;;;;;;;;5100567;28;20211;-86
2023/02/23 07:25:10;;;;;;;6.20;3.00;;;;;;;;;;5111360;28;20204;-85
2023/02/23 07:27:36;;;;;;;5.87;4.50;;;;;;;;;;5111436;28;20208;-86
2023/02/23 07:30:04;;;;;;;4.77;2.97;;;;;;;;;;5111210;28;20203;-86
2023/02/23 07:32:31;;;;;;;6.70;3.67;;;;;;;;;;5101733;28;20633;-85
2023/02/23 07:34:57;;;;;;;4.47;3.20;;;;;;;;;;5104588;28;20196;-85
2023/02/23 07:37:24;;;;;;;7.10;3.27;;;;;;;;;;5101212;28;20207;-85
2023/02/23 07:39:51;;;;;;;4.93;3.33;;;;;;;;;;5107308;28;20192;-85
2023/02/23 07:42:19;;;;;;;6.43;3.33;;;;;;;;;;5101643;28;20199;-86
2023/02/23 07:44:46;;;;;;;5.00;2.57;;;;;;;;;;5111004;28;20214;-86
2023/02/23 07:47:12;;;;;;;5.23;3.63;;;;;;;;;;5111371;28;20251;-85
2023/02/23 07:49:39;;;;;;;2.93;1.83;;;;;;;;;;5106898;28;20205;-86
2023/02/23 07:52:06;;;;;;;2.73;2.50;;;;;;;;;;5102652;28;20204;-86
2023/02/23 07:54:33;;;;;;;3.53;2.43;;;;;;;;;;5097334;28;20670;-85
2023/02/23 07:57:00;;;;;;;3.77;2.03;;;;;;;;;;5111139;28;20203;-85
2023/02/23 07:59:29;;;;;;;4.67;2.93;;;;;;;;;;5110444;28;20200;-85
2023/02/23 08:01:55;;;;;;;5.17;2.43;;;;;;;;;;5111232;28;20270;-84
2023/02/23 08:04:22;;;;;;;12.77;9.00;;;;;;;;;;5110787;28;20264;-85
2023/02/23 08:06:49;;;;;;;55.93;31.27;;;;;;;;;;5098543;28;20227;-85
2023/02/23 08:09:16;;;;;;;8.53;5.33;;;;;;;;;;5104021;28;20208;-84
2023/02/23 08:11:43;;;;;;;6.17;5.53;;;;;;;;;;5090368;28;20694;-85
2023/02/23 08:14:09;;;;;;;6.63;5.93;;;;;;;;;;5104428;28;20227;-85
2023/02/23 08:16:37;;;;;;;6.23;5.33;;;;;;;;;;5102280;28;20200;-85
2023/02/23 08:19:04;;;;;;;4.97;2.67;;;;;;;;;;5097594;28;20200;-85
2023/02/23 08:21:31;;;;;;;11.50;6.67;;;;;;;;;;5098351;28;20205;-85
2023/02/23 08:23:58;;;;;;;8.70;4.33;;;;;;;;;;5109682;28;20210;-85
2023/02/23 08:26:25;;;;;;;4.93;2.77;;;;;;;;;;5114023;28;20227;-85
2023/02/23 08:28:52;;;;;;;8.23;3.53;;;;;;;;;;5100773;28;20199;-85
2023/02/23 08:31:22;;;;;;;4.47;2.73;;;;;;;;;;5114271;28;20195;-85
2023/02/23 08:33:51;;;;;;;8.13;3.93;;;;;;;;;;5093623;28;20245;-85
2023/02/23 08:36:19;;;;;;;8.47;3.63;;;;;;;;;;5093930;28;20200;-85
2023/02/23 08:38:46;;;;;;;5.20;4.70;;;;;;;;;;5093662;28;20207;-84
2023/02/23 08:41:13;;;;;;;5.60;3.70;;;;;;;;;;5107775;28;20657;-85
2023/02/23 08:43:39;;;;;;;5.77;3.07;;;;;;;;;;5093987;28;20200;-85
2023/02/23 08:46:06;;;;;;;11.23;4.03;;;;;;;;;;5106946;28;20241;-85
2023/02/23 08:48:34;;;;;;;9.13;5.47;;;;;;;;;;5102696;28;20215;-85
2023/02/23 08:51:02;;;;;;;3.27;2.47;;;;;;;;;;5111920;28;20256;-84
2023/02/23 08:53:29;;;;;;;8.23;3.70;;;;;;;;;;5093727;28;20584;-84
2023/02/23 08:55:57;;;;;;;6.47;4.37;;;;;;;;;;5093327;28;20678;-84
2023/02/23 08:58:24;;;;;;;5.87;4.00;;;;;;;;;;5102883;28;20710;-84
2023/02/23 09:00:51;;;;;;;7.47;5.73;;;;;;;;;;5099416;28;20199;-84
2023/02/23 09:03:18;;;;;;;6.43;3.83;;;;;;;;;;5113317;28;20701;-85
2023/02/23 09:05:45;;;;;;;8.00;3.37;;;;;;;;;;5113000;28;20257;-84
2023/02/23 09:08:15;;;;;;;9.27;4.67;;;;;;;;;;5113430;28;20210;-84
2023/02/23 09:10:42;;;;;;;3.67;3.30;;;;;;;;;;5099877;28;20201;-84
2023/02/23 09:13:09;;;;;;;5.93;3.20;;;;;;;;;;5113365;28;20612;-84
2023/02/23 09:15:37;;;;;;;8.23;2.90;;;;;;;;;;5111305;28;20249;-84
2023/02/23 09:18:04;;;;;;;3.67;3.27;;;;;;;;;;5092978;28;20207;-84
2023/02/23 09:20:31;;;;;;;6.37;4.67;;;;;;;;;;5106417;28;20703;-84
2023/02/23 09:22:58;;;;;;;5.47;3.27;;;;;;;;;;5103338;28;20674;-84
2023/02/23 09:25:28;;;;;;;7.97;4.07;;;;;;;;;;5099406;28;20200;-84
2023/02/23 09:27:56;;;;;;;5.40;3.07;;;;;;;;;;5101364;28;20319;-84
2023/02/23 09:30:23;;;;;;;8.50;3.27;;;;;;;;;;5111175;28;20233;-84
2023/02/23 09:32:51;;;;;;;7.53;3.10;;;;;;;;;;5101422;28;20563;-84
2023/02/23 09:35:19;;;;;;;7.30;4.00;;;;;;;;;;5097498;28;20200;-84
2023/02/23 09:37:47;;;;;;;5.23;3.70;;;;;;;;;;5112274;28;20199;-84
2023/02/23 09:40:15;;;;;;;6.17;3.30;;;;;;;;;;5098920;28;20196;-84
2023/02/23 09:42:47;;;;;;;12.17;3.97;;;;;;;;;;5113057;28;20265;-84
2023/02/23 09:45:21;;;;;;;11.87;3.60;;;;;;;;;;5092235;28;20196;-84
2023/02/23 09:47:59;;;;;;;9.23;3.93;;;;;;;;;;5105889;28;20246;-84
2023/02/23 09:50:29;;;;;;;6.60;4.90;;;;;;;;;;5102078;28;20203;-84
2023/02/23 09:52:59;;;;;;;10.27;6.83;;;;;;;;;;5112692;28;20202;-84
2023/02/23 09:55:26;;;;;;;4.53;3.60;;;;;;;;;;5112815;28;20191;-83
2023/02/23 09:57:57;;;;;;;5.87;4.00;;;;;;;;;;5094065;28;20196;-84
2023/02/23 10:00:26;;;;;;;7.63;5.63;;;;;;;;;;5103860;28;20203;-83
2023/02/23 10:03:03;;;;;;;6.97;4.70;;;;;;;;;;5098894;28;20207;-83
2023/02/23 10:05:32;;;;;;;6.87;3.90;;;;;;;;;;5112289;28;20300;-85
2023/02/23 10:08:04;;;;;;;8.57;4.73;;;;;;;;;;5104465;28;20227;-84
2023/02/23 10:10:38;;;;;;;6.23;4.43;;;;;;;;;;5107267;28;20286;-84
2023/02/23 10:13:12;;;;;;;10.03;8.27;;;;;;;;;;5112564;28;20203;-84
2023/02/23 10:15:41;;;;;;;7.87;4.47;;;;;;;;;;5111923;28;20244;-84
2023/02/23 10:18:16;;;;;;;11.17;4.87;;;;;;;;;;5101601;28;20207;-83
2023/02/23 10:20:49;;;;;;;9.33;5.30;;;;;;;;;;5096797;28;20203;-84
2023/02/23 10:23:19;;;;;;;54.43;31.33;;;;;;;;;;5112069;28;20203;-84
2023/02/23 10:25:48;;;;;;;12.80;8.60;;;;;;;;;;5098640;28;20207;-84
2023/02/23 10:28:19;;;;;;;14.03;10.37;;;;;;;;;;5110809;28;20653;-84
2023/02/23 10:30:46;;;;;;;10.87;9.13;;;;;;;;;;5091452;28;20724;-84
2023/02/23 10:33:16;;;;;;;8.77;7.13;;;;;;;;;;5107333;28;20191;-85
2023/02/23 10:35:44;;;;;;;7.33;5.20;;;;;;;;;;5112008;28;20207;-86
2023/02/23 10:38:15;;;;;;;8.83;6.67;;;;;;;;;;5111496;28;20263;-84
2023/02/23 10:40:42;;;;;;;8.07;6.30;;;;;;;;;;5102318;28;20190;-84
2023/02/23 10:43:11;;;;;;;7.80;7.00;;;;;;;;;;5094563;28;20206;-83
2023/02/23 10:45:44;;;;;;;9.07;5.33;;;;;;;;;;5111807;28;20238;-83
2023/02/23 10:48:17;;;;;;;13.53;9.70;;;;;;;;;;5110499;28;20785;-83
2023/02/23 10:50:44;;;;;;;10.40;7.27;;;;;;;;;;5111425;28;20215;-85
2023/02/23 10:53:16;;;;;;;7.50;6.80;;;;;;;;;;5098281;28;20213;-84
2023/02/23 10:55:44;;;;;;;8.97;6.47;;;;;;;;;;5111626;28;20662;-83
2023/02/23 10:58:15;;;;;;;9.27;7.33;;;;;;;;;;5098572;28;20695;-83
2023/02/23 11:00:50;;;;;;;12.37;8.60;;;;;;;;;;5096971;28;20262;-83
2023/02/23 11:03:21;;;;;;;13.27;9.07;;;;;;;;;;5091081;28;20195;-84
2023/02/23 11:05:52;;;;;;;9.23;7.10;;;;;;;;;;5104377;28;20192;-84
2023/02/23 11:08:22;;;;;;;12.77;6.80;;;;;;;;;;5101930;28;20592;-83
2023/02/23 11:11:16;;;;;;;6.50;5.80;;;;;;;;;;5111228;28;20327;-83
2023/02/23 11:13:45;;;;;;;11.60;7.10;;;;;;;;;;5103889;28;20203;-83
2023/02/23 11:16:14;;;;;;;11.90;7.67;;;;;;;;;;5099464;28;20204;-82
2023/02/23 11:18:43;;;;;;;7.97;6.97;;;;;;;;;;5111690;28;20196;-83
2023/02/23 11:21:11;;;;;;;11.73;8.23;;;;;;;;;;5111590;28;20255;-83
2023/02/23 11:23:38;;;;;;;10.87;7.70;;;;;;;;;;5107599;28;20576;-83
2023/02/23 11:26:21;;;;;;;10.47;8.10;;;;;;;;;;5090715;28;20204;-84
2023/02/23 11:28:51;;;;;;;14.63;8.53;;;;;;;;;;5104593;28;20207;-83
2023/02/23 11:31:21;;;;;;;14.40;9.13;;;;;;;;;;5103976;28;20256;-82
2023/02/23 11:33:49;;;;;;;17.57;9.47;;;;;;;;;;5097886;28;20283;-83
2023/02/23 11:36:26;;;;;;;10.07;6.43;;;;;;;;;;5110059;28;20204;-83
2023/02/23 11:39:02;;;;;;;7.20;5.83;;;;;;;;;;5091011;28;20200;-82
2023/02/23 11:41:30;;;;;;;13.70;7.33;;;;;;;;;;5094174;28;20213;-83
2023/02/23 11:43:58;;;;;;;16.63;6.40;;;;;;;;;;5111604;28;20260;-82
2023/02/23 11:46:28;;;;;;;8.53;6.07;;;;;;;;;;5106924;28;20232;-84
2023/02/23 11:48:58;;;;;;;6.30;5.57;;;;;;;;;;5101847;28;20203;-83
2023/02/23 11:51:27;;;;;;;8.40;6.20;;;;;;;;;;5111359;28;20208;-83
2023/02/23 11:53:54;;;;;;;8.57;7.07;;;;;;;;;;5111289;28;20253;-83
2023/02/23 11:56:24;;;;;;;9.73;7.20;;;;;;;;;;5096987;28;20207;-83
2023/02/23 11:58:52;;;;;;;9.47;8.47;;;;;;;;;;5111625;28;20215;-82
2023/02/23 12:01:23;;;;;;;10.40;5.77;;;;;;;;;;5101399;28;20210;-83
2023/02/23 12:03:53;;;;;;;7.23;6.00;;;;;;;;;;5114284;28;20196;-83
2023/02/23 12:06:29;;;;;;;6.83;5.63;;;;;;;;;;5102236;28;20265;-83
2023/02/23 12:08:58;;;;;;;8.13;6.57;;;;;;;;;;5114451;28;20231;-83
2023/02/23 12:11:27;;;;;;;7.70;6.00;;;;;;;;;;5105536;28;20200;-83
2023/02/23 12:13:58;;;;;;;9.33;6.80;;;;;;;;;;5110378;28;20276;-83
2023/02/23 12:16:28;;;;;;;8.50;7.60;;;;;;;;;;5104737;28;20257;-82
2023/02/23 12:18:59;;;;;;;11.27;6.43;;;;;;;;;;5097793;28;20202;-83
2023/02/23 12:21:32;;;;;;;6.37;5.70;;;;;;;;;;5114751;28;20206;-82
2023/02/23 12:24:06;;;;;;;16.73;7.80;;;;;;;;;;5114286;28;20207;-82
2023/02/23 12:26:36;;;;;;;19.47;7.53;;;;;;;;;;5101042;28;20287;-83
2023/02/23 12:29:06;;;;;;;12.17;9.30;;;;;;;;;;5101360;28;20215;-81
2023/02/23 12:31:39;;;;;;;13.00;9.20;;;;;;;;;;5112926;28;20204;-83
2023/02/23 12:34:12;;;;;;;11.53;8.10;;;;;;;;;;5103019;28;20203;-83
2023/02/23 12:36:41;;;;;;;7.03;6.33;;;;;;;;;;5114178;28;20199;-83
2023/02/23 12:39:16;;;;;;;18.80;9.73;;;;;;;;;;5103688;28;20291;-83
2023/02/23 12:41:46;;;;;;;17.50;8.30;;;;;;;;;;5093725;28;20196;-82
2023/02/23 12:44:22;;;;;;;11.07;8.13;;;;;;;;;;5093888;28;20203;-82
2023/02/23 12:46:52;;;;;;;11.45;7.50;;;;;;;;;;5100846;28;20230;-82
2023/02/23 12:49:27;;;;;;;9.33;7.17;;;;;;;;;;5114195;28;20206;-82
2023/02/23 12:51:57;;;;;;;11.37;8.10;;;;;;;;;;5104506;28;20214;-83
2023/02/23 12:54:24;;;;;;;8.17;7.30;;;;;;;;;;5110206;28;20214;-83
2023/02/23 12:56:56;;;;;;;14.13;8.30;;;;;;;;;;5103397;28;20688;-84
2023/02/23 12:59:37;;;;;;;10.47;6.70;;;;;;;;;;5107068;28;20199;-83
2023/02/23 13:02:10;;;;;;;13.17;7.23;;;;;;;;;;5106483;28;20256;-82
2023/02/23 13:05:11;;;;;;;7.47;6.47;;;;;;;;;;5093511;28;20203;-82
2023/02/23 13:07:43;;;;;;;12.23;6.97;;;;;;;;;;5112562;28;20297;-83
2023/02/23 13:10:20;;;;;;;8.13;6.90;;;;;;;;;;5113014;28;20646;-83
2023/02/23 13:12:55;;;;;;;7.80;6.10;;;;;;;;;;5100116;28;20268;-82
2023/02/23 13:15:27;;;;;;;9.47;7.60;;;;;;;;;;5113506;28;20256;-82
2023/02/23 13:17:58;;;;;;;8.63;7.53;;;;;;;;;;5113601;28;20591;-82
2023/02/23 13:20:33;;;;;;;13.20;6.53;;;;;;;;;;5112918;28;20567;-83
2023/02/23 13:23:09;;;;;;;9.23;7.07;;;;;;;;;;5102217;28;20649;-82
2023/02/23 13:25:43;;;;;;;20.87;7.03;;;;;;;;;;5111879;28;20241;-82
2023/02/23 13:28:15;;;;;;;8.90;6.33;;;;;;;;;;5112897;28;20234;-82
2023/02/23 13:30:46;;;;;;;8.53;5.97;;;;;;;;;;5105798;28;20298;-82
2023/02/23 13:33:22;;;;;;;13.83;6.67;;;;;;;;;;5106411;28;20497;-83
2023/02/23 13:35:50;;;;;;;11.30;9.13;;;;;;;;;;5101973;28;20613;-82
2023/02/23 13:38:21;;;;;;;14.27;7.33;;;;;;;;;;5110174;28;20212;-82
2023/02/23 13:40:50;;;;;;;7.57;6.20;;;;;;;;;;5092087;28;20200;-82
2023/02/23 13:43:22;;;;;;;6.80;5.77;;;;;;;;;;5109836;28;20203;-82
2023/02/23 13:45:56;;;;;;;7.00;6.20;;;;;;;;;;5112942;28;20207;-84
2023/02/23 13:48:33;;;;;;;8.80;5.93;;;;;;;;;;5107252;28;20281;-82
2023/02/23 13:51:05;;;;;;;8.63;7.73;;;;;;;;;;5106028;28;20199;-83
2023/02/23 13:53:40;;;;;;;9.63;7.13;;;;;;;;;;5100243;28;20689;-82
2023/02/23 13:56:10;;;;;;;10.47;6.67;;;;;;;;;;5112359;28;20199;-82
2023/02/23 13:58:37;;;;;;;9.43;7.47;;;;;;;;;;5112669;28;20256;-83
2023/02/23 14:01:10;;;;;;;12.77;6.30;;;;;;;;;;5112258;28;20770;-82
2023/02/23 14:03:45;;;;;;;10.77;7.33;;;;;;;;;;5100896;28;20592;-84
2023/02/23 14:06:15;;;;;;;10.30;7.13;;;;;;;;;;5092450;28;20224;-82
2023/02/23 14:08:43;;;;;;;10.47;7.93;;;;;;;;;;5091863;28;20702;-82
2023/02/23 14:11:10;;;;;;;9.57;7.13;;;;;;;;;;5092206;28;20208;-82
2023/02/23 14:13:41;;;;;;;12.17;7.07;;;;;;;;;;5091801;28;20290;-83
2023/02/23 14:16:12;;;;;;;11.07;8.07;;;;;;;;;;5112126;28;20241;-82
2023/02/23 14:18:54;;;;;;;13.67;9.30;;;;;;;;;;5110828;28;20200;-83
2023/02/23 14:21:32;;;;;;;22.27;12.80;;;;;;;;;;5102273;28;20199;-83
2023/02/23 14:24:18;;;;;;;22.97;14.07;;;;;;;;;;5098378;28;20210;-83
2023/02/23 14:26:47;;;;;;;21.10;11.87;;;;;;;;;;5098678;28;20256;-83
2023/02/23 14:29:32;;;;;;;14.73;10.00;;;;;;;;;;5110623;28;20230;-82
2023/02/23 14:32:02;;;;;;;13.13;9.07;;;;;;;;;;5106881;28;20575;-83
2023/02/23 14:34:50;;;;;;;11.57;9.33;;;;;;;;;;5103757;28;20204;-83
2023/02/23 14:37:21;;;;;;;12.97;10.43;;;;;;;;;;5099987;28;20212;-83
2023/02/23 14:39:49;;;;;;;13.43;9.80;;;;;;;;;;5109196;28;20227;-83
2023/02/23 14:42:22;;;;;;;15.23;10.67;;;;;;;;;;5100628;28;20645;-83
2023/02/23 14:44:51;;;;;;;18.23;12.57;;;;;;;;;;5098413;28;20199;-83
2023/02/23 14:47:19;;;;;;;22.17;14.53;;;;;;;;;;5100755;28;20766;-82
2023/02/23 14:49:48;;;;;;;21.70;14.90;;;;;;;;;;5109152;28;20728;-83
2023/02/23 14:52:19;;;;;;;15.77;12.37;;;;;;;;;;5111450;28;20219;-83
2023/02/23 14:54:47;;;;;;;27.17;18.60;;;;;;;;;;5098280;28;20288;-83
2023/02/23 14:57:19;;;;;;;12.30;9.87;;;;;;;;;;5111316;28;20742;-84
2023/02/23 14:59:53;;;;;;;21.77;15.93;;;;;;;;;;5098274;28;20196;-84
2023/02/23 15:02:22;;;;;;;34.50;20.93;;;;;;;;;;5097429;28;20203;-83
2023/02/23 15:04:50;;;;;;;32.63;21.07;;;;;;;;;;5103148;28;20283;-83
2023/02/23 15:07:24;;;;;;;33.23;21.50;;;;;;;;;;5105971;28;20766;-83
2023/02/23 15:09:52;;;;;;;17.07;13.23;;;;;;;;;;5101744;28;20745;-84
2023/02/23 15:12:20;;;;;;;20.63;13.10;;;;;;;;;;5093655;28;20276;-83
2023/02/23 15:14:48;;;;;;;29.50;16.43;;;;;;;;;;5111244;28;20204;-83
2023/02/23 15:17:18;;;;;;;21.43;12.87;;;;;;;;;;5110957;28;20698;-83
2023/02/23 15:19:46;;;;;;;101.07;46.60;;;;;;;;;;5100716;28;20211;-84
2023/02/23 15:22:23;;;;;;;159.17;81.80;;;;;;;;;;5104419;28;20201;-83
2023/02/23 15:24:51;;;;;;;56.63;36.20;;;;;;;;;;5103959;28;20195;-83
2023/02/23 15:27:21;;;;;;;18.50;14.60;;;;;;;;;;5097525;28;20566;-84
2023/02/23 15:29:48;;;;;;;12.53;9.40;;;;;;;;;;5111426;28;20225;-83
2023/02/23 15:32:19;;;;;;;16.13;10.83;;;;;;;;;;5098252;28;20264;-83
2023/02/23 15:34:46;;;;;;;89.73;46.20;;;;;;;;;;5113354;28;20199;-83
2023/02/23 15:37:19;;;;;;;15.50;9.23;;;;;;;;;;5115423;28;20211;-83
2023/02/23 15:39:52;;;;;;;12.90;7.80;;;;;;;;;;5101959;28;20235;-83
2023/02/23 15:42:24;;;;;;;15.60;10.27;;;;;;;;;;5105335;28;20231;-82
2023/02/23 15:44:56;;;;;;;13.60;7.93;;;;;;;;;;5112445;28;20291;-83
2023/02/23 15:47:27;;;;;;;12.60;7.97;;;;;;;;;;5115388;28;20280;-83
2023/02/23 15:50:00;;;;;;;14.13;7.57;;;;;;;;;;5109573;28;20228;-82
2023/02/23 15:52:31;;;;;;;20.27;7.93;;;;;;;;;;5108773;28;22105;-83
2023/02/23 15:55:05;;;;;;;8.73;6.43;;;;;;;;;;5101924;28;20203;-83
2023/02/23 15:57:33;;;;;;;14.70;9.27;;;;;;;;;;5100796;28;20283;-84
2023/02/23 16:00:07;;;;;;;21.47;11.03;;;;;;;;;;5115011;28;20211;-83
2023/02/23 16:02:36;;;;;;;16.53;8.67;;;;;;;;;;5101462;28;20203;-83
2023/02/23 16:05:10;;;;;;;18.67;10.53;;;;;;;;;;5114731;28;20203;-83
2023/02/23 16:07:44;;;;;;;10.27;7.13;;;;;;;;;;5114318;28;20207;-83
2023/02/23 16:10:23;;;;;;;9.30;5.73;;;;;;;;;;5114384;28;20239;-84